sensor_id;sensor_type;location;lat;lon;timestamp;P1;durP1;ratioP1;P2;durP2;ratioP2
48975;SDS011;34791;52.752;8.346;2022-07-23T00:00:42;30.67;;;15.40;;
48975;SDS011;34791;52.752;8.346;2022-07-23T00:03:07;32.80;;;16.33;;
48975;SDS011;34791;52.752;8.346;2022-07-23T00:05:32;30.00;;;15.67;;
48975;SDS011;34791;52.752;8.346;2022-07-23T00:07:58;33.13;;;15.87;;
48975;SDS011;34791;52.752;8.346;2022-07-23T00:10:23;26.00;;;13.77;;
48975;SDS011;34791;52.752;8.346;2022-07-23T00:12:48;22.70;;;12.80;;
48975;SDS011;34791;52.752;8.346;2022-07-23T00:15:13;32.60;;;14.27;;
48975;SDS011;34791;52.752;8.346;2022-07-23T00:17:39;28.07;;;14.60;;
48975;SDS011;34791;52.752;8.346;2022-07-23T00:20:04;25.73;;;14.00;;
48975;SDS011;34791;52.752;8.346;2022-07-23T00:22:29;26.37;;;13.60;;
48975;SDS011;34791;52.752;8.346;2022-07-23T00:24:55;28.97;;;14.73;;
48975;SDS011;34791;52.752;8.346;2022-07-23T00:27:21;29.80;;;13.97;;
48975;SDS011;34791;52.752;8.346;2022-07-23T00:29:46;32.43;;;14.87;;
48975;SDS011;34791;52.752;8.346;2022-07-23T00:32:11;30.33;;;15.57;;
48975;SDS011;34791;52.752;8.346;2022-07-23T00:34:37;34.70;;;16.67;;
48975;SDS011;34791;52.752;8.346;2022-07-23T00:37:02;32.33;;;15.97;;
48975;SDS011;34791;52.752;8.346;2022-07-23T00:39:27;37.10;;;16.43;;
48975;SDS011;34791;52.752;8.346;2022-07-23T00:41:52;37.27;;;16.30;;
48975;SDS011;34791;52.752;8.346;2022-07-23T00:44:25;31.30;;;14.90;;
48975;SDS011;34791;52.752;8.346;2022-07-23T00:46:52;25.37;;;14.40;;
48975;SDS011;34791;52.752;8.346;2022-07-23T00:49:23;26.03;;;14.27;;
48975;SDS011;34791;52.752;8.346;2022-07-23T00:51:48;28.43;;;14.30;;
48975;SDS011;34791;52.752;8.346;2022-07-23T00:54:14;24.20;;;13.23;;
48975;SDS011;34791;52.752;8.346;2022-07-23T00:56:40;22.00;;;12.63;;
48975;SDS011;34791;52.752;8.346;2022-07-23T00:59:06;21.17;;;12.53;;
48975;SDS011;34791;52.752;8.346;2022-07-23T01:01:32;20.53;;;11.17;;
48975;SDS011;34791;52.752;8.346;2022-07-23T01:03:57;21.73;;;11.10;;
48975;SDS011;34791;52.752;8.346;2022-07-23T01:06:23;20.93;;;11.80;;
48975;SDS011;34791;52.752;8.346;2022-07-23T01:08:48;21.17;;;11.23;;
48975;SDS011;34791;52.752;8.346;2022-07-23T01:11:13;19.17;;;11.03;;
48975;SDS011;34791;52.752;8.346;2022-07-23T01:13:45;21.07;;;11.33;;
48975;SDS011;34791;52.752;8.346;2022-07-23T01:16:10;22.00;;;11.05;;
48975;SDS011;34791;52.752;8.346;2022-07-23T01:18:35;19.90;;;10.50;;
48975;SDS011;34791;52.752;8.346;2022-07-23T01:21:01;17.47;;;9.83;;
48975;SDS011;34791;52.752;8.346;2022-07-23T01:23:26;18.70;;;10.13;;
48975;SDS011;34791;52.752;8.346;2022-07-23T01:25:52;16.77;;;9.07;;
48975;SDS011;34791;52.752;8.346;2022-07-23T01:28:17;14.40;;;9.40;;
48975;SDS011;34791;52.752;8.346;2022-07-23T01:30:42;16.93;;;9.23;;
48975;SDS011;34791;52.752;8.346;2022-07-23T01:33:08;16.40;;;9.40;;
48975;SDS011;34791;52.752;8.346;2022-07-23T01:35:33;21.57;;;10.40;;
48975;SDS011;34791;52.752;8.346;2022-07-23T01:37:58;15.80;;;9.93;;
48975;SDS011;34791;52.752;8.346;2022-07-23T01:40:23;20.97;;;10.60;;
48975;SDS011;34791;52.752;8.346;2022-07-23T01:42:48;20.40;;;10.00;;
48975;SDS011;34791;52.752;8.346;2022-07-23T01:45:14;20.63;;;9.90;;
48975;SDS011;34791;52.752;8.346;2022-07-23T01:47:39;21.20;;;10.77;;
48975;SDS011;34791;52.752;8.346;2022-07-23T01:50:05;16.90;;;10.67;;
48975;SDS011;34791;52.752;8.346;2022-07-23T01:52:30;16.53;;;9.93;;
48975;SDS011;34791;52.752;8.346;2022-07-23T01:54:55;20.73;;;9.73;;
48975;SDS011;34791;52.752;8.346;2022-07-23T01:57:20;14.83;;;9.43;;
48975;SDS011;34791;52.752;8.346;2022-07-23T01:59:46;16.67;;;9.67;;
48975;SDS011;34791;52.752;8.346;2022-07-23T02:02:11;18.50;;;10.50;;
48975;SDS011;34791;52.752;8.346;2022-07-23T02:04:36;19.10;;;10.17;;
48975;SDS011;34791;52.752;8.346;2022-07-23T02:07:02;21.27;;;10.43;;
48975;SDS011;34791;52.752;8.346;2022-07-23T02:09:28;21.10;;;10.90;;
48975;SDS011;34791;52.752;8.346;2022-07-23T02:11:53;18.80;;;10.37;;
48975;SDS011;34791;52.752;8.346;2022-07-23T02:14:18;20.77;;;10.37;;
48975;SDS011;34791;52.752;8.346;2022-07-23T02:16:43;16.43;;;10.73;;
48975;SDS011;34791;52.752;8.346;2022-07-23T02:19:09;17.07;;;10.83;;
48975;SDS011;34791;52.752;8.346;2022-07-23T02:21:34;18.43;;;10.87;;
48975;SDS011;34791;52.752;8.346;2022-07-23T02:23:59;20.43;;;10.97;;
48975;SDS011;34791;52.752;8.346;2022-07-23T02:26:24;18.70;;;11.10;;
48975;SDS011;34791;52.752;8.346;2022-07-23T02:28:49;17.80;;;11.40;;
48975;SDS011;34791;52.752;8.346;2022-07-23T02:31:15;18.93;;;10.90;;
48975;SDS011;34791;52.752;8.346;2022-07-23T02:33:40;19.03;;;10.97;;
48975;SDS011;34791;52.752;8.346;2022-07-23T02:36:05;21.73;;;11.73;;
48975;SDS011;34791;52.752;8.346;2022-07-23T02:38:31;21.37;;;11.87;;
48975;SDS011;34791;52.752;8.346;2022-07-23T02:40:56;23.20;;;11.83;;
48975;SDS011;34791;52.752;8.346;2022-07-23T02:43:21;23.00;;;11.53;;
48975;SDS011;34791;52.752;8.346;2022-07-23T02:45:46;20.60;;;12.50;;
48975;SDS011;34791;52.752;8.346;2022-07-23T02:48:11;23.20;;;12.90;;
48975;SDS011;34791;52.752;8.346;2022-07-23T02:50:39;25.20;;;13.23;;
48975;SDS011;34791;52.752;8.346;2022-07-23T02:53:05;27.20;;;13.10;;
48975;SDS011;34791;52.752;8.346;2022-07-23T02:55:30;27.77;;;14.20;;
48975;SDS011;34791;52.752;8.346;2022-07-23T02:57:56;28.30;;;14.63;;
48975;SDS011;34791;52.752;8.346;2022-07-23T03:00:21;26.90;;;13.87;;
48975;SDS011;34791;52.752;8.346;2022-07-23T03:02:46;25.30;;;14.07;;
48975;SDS011;34791;52.752;8.346;2022-07-23T03:05:11;23.53;;;12.90;;
48975;SDS011;34791;52.752;8.346;2022-07-23T03:07:37;27.80;;;14.17;;
48975;SDS011;34791;52.752;8.346;2022-07-23T03:10:02;27.40;;;14.67;;
48975;SDS011;34791;52.752;8.346;2022-07-23T03:12:27;30.00;;;14.90;;
48975;SDS011;34791;52.752;8.346;2022-07-23T03:14:53;35.97;;;16.43;;
48975;SDS011;34791;52.752;8.346;2022-07-23T03:17:18;35.70;;;16.07;;
48975;SDS011;34791;52.752;8.346;2022-07-23T03:19:43;37.17;;;17.33;;
48975;SDS011;34791;52.752;8.346;2022-07-23T03:22:08;33.30;;;16.97;;
48975;SDS011;34791;52.752;8.346;2022-07-23T03:24:34;37.57;;;17.20;;
48975;SDS011;34791;52.752;8.346;2022-07-23T03:27:17;35.13;;;17.07;;
48975;SDS011;34791;52.752;8.346;2022-07-23T03:29:43;30.60;;;15.20;;
48975;SDS011;34791;52.752;8.346;2022-07-23T03:32:08;32.20;;;15.77;;
48975;SDS011;34791;52.752;8.346;2022-07-23T03:34:33;34.13;;;16.30;;
48975;SDS011;34791;52.752;8.346;2022-07-23T03:36:58;28.07;;;14.47;;
48975;SDS011;34791;52.752;8.346;2022-07-23T03:39:24;38.23;;;16.07;;
48975;SDS011;34791;52.752;8.346;2022-07-23T03:41:49;25.80;;;12.13;;
48975;SDS011;34791;52.752;8.346;2022-07-23T03:44:14;13.63;;;8.23;;
48975;SDS011;34791;52.752;8.346;2022-07-23T03:46:39;13.60;;;8.57;;
48975;SDS011;34791;52.752;8.346;2022-07-23T03:49:05;30.97;;;9.97;;
48975;SDS011;34791;52.752;8.346;2022-07-23T03:51:30;28.83;;;12.10;;
48975;SDS011;34791;52.752;8.346;2022-07-23T03:53:55;26.67;;;12.90;;
48975;SDS011;34791;52.752;8.346;2022-07-23T03:56:20;94.43;;;14.93;;
48975;SDS011;34791;52.752;8.346;2022-07-23T03:58:46;23.40;;;12.37;;
48975;SDS011;34791;52.752;8.346;2022-07-23T04:01:11;23.57;;;12.77;;
48975;SDS011;34791;52.752;8.346;2022-07-23T04:03:37;27.33;;;13.47;;
48975;SDS011;34791;52.752;8.346;2022-07-23T04:06:02;22.63;;;11.57;;
48975;SDS011;34791;52.752;8.346;2022-07-23T04:08:27;26.70;;;13.67;;
48975;SDS011;34791;52.752;8.346;2022-07-23T04:10:52;25.97;;;13.57;;
48975;SDS011;34791;52.752;8.346;2022-07-23T04:13:18;27.23;;;13.77;;
48975;SDS011;34791;52.752;8.346;2022-07-23T04:15:43;24.67;;;13.90;;
48975;SDS011;34791;52.752;8.346;2022-07-23T04:18:08;28.90;;;14.63;;
48975;SDS011;34791;52.752;8.346;2022-07-23T04:20:33;27.07;;;13.73;;
48975;SDS011;34791;52.752;8.346;2022-07-23T04:22:59;22.13;;;12.20;;
48975;SDS011;34791;52.752;8.346;2022-07-23T04:25:24;24.30;;;12.93;;
48975;SDS011;34791;52.752;8.346;2022-07-23T04:27:49;25.17;;;13.50;;
48975;SDS011;34791;52.752;8.346;2022-07-23T04:30:14;30.83;;;15.73;;
48975;SDS011;34791;52.752;8.346;2022-07-23T04:32:40;27.43;;;14.47;;
48975;SDS011;34791;52.752;8.346;2022-07-23T04:35:05;18.50;;;11.73;;
48975;SDS011;34791;52.752;8.346;2022-07-23T04:37:30;22.30;;;10.70;;
48975;SDS011;34791;52.752;8.346;2022-07-23T04:39:55;17.27;;;10.00;;
48975;SDS011;34791;52.752;8.346;2022-07-23T04:42:21;20.60;;;12.47;;
48975;SDS011;34791;52.752;8.346;2022-07-23T04:44:46;21.93;;;11.40;;
48975;SDS011;34791;52.752;8.346;2022-07-23T04:47:11;18.80;;;10.53;;
48975;SDS011;34791;52.752;8.346;2022-07-23T04:49:36;16.43;;;10.63;;
48975;SDS011;34791;52.752;8.346;2022-07-23T04:52:02;20.63;;;10.60;;
48975;SDS011;34791;52.752;8.346;2022-07-23T04:54:27;21.63;;;11.67;;
48975;SDS011;34791;52.752;8.346;2022-07-23T04:56:52;19.63;;;11.10;;
48975;SDS011;34791;52.752;8.346;2022-07-23T04:59:18;18.60;;;11.37;;
48975;SDS011;34791;52.752;8.346;2022-07-23T05:01:43;17.70;;;9.73;;
48975;SDS011;34791;52.752;8.346;2022-07-23T05:04:08;15.73;;;7.80;;
48975;SDS011;34791;52.752;8.346;2022-07-23T05:06:33;12.90;;;7.38;;
48975;SDS011;34791;52.752;8.346;2022-07-23T05:08:59;18.50;;;6.43;;
48975;SDS011;34791;52.752;8.346;2022-07-23T05:11:24;11.43;;;5.53;;
48975;SDS011;34791;52.752;8.346;2022-07-23T05:13:49;11.27;;;5.90;;
48975;SDS011;34791;52.752;8.346;2022-07-23T05:16:15;10.23;;;4.93;;
48975;SDS011;34791;52.752;8.346;2022-07-23T05:18:40;7.65;;;4.85;;
48975;SDS011;34791;52.752;8.346;2022-07-23T05:21:05;11.00;;;4.50;;
48975;SDS011;34791;52.752;8.346;2022-07-23T05:23:30;13.57;;;4.35;;
48975;SDS011;34791;52.752;8.346;2022-07-23T05:25:55;10.98;;;4.25;;
48975;SDS011;34791;52.752;8.346;2022-07-23T05:28:21;10.25;;;4.03;;
48975;SDS011;34791;52.752;8.346;2022-07-23T05:30:47;8.63;;;3.65;;
48975;SDS011;34791;52.752;8.346;2022-07-23T05:33:12;16.55;;;4.22;;
48975;SDS011;34791;52.752;8.346;2022-07-23T05:35:37;7.50;;;3.50;;
48975;SDS011;34791;52.752;8.346;2022-07-23T05:38:02;6.63;;;3.50;;
48975;SDS011;34791;52.752;8.346;2022-07-23T05:40:27;9.85;;;3.50;;
48975;SDS011;34791;52.752;8.346;2022-07-23T05:42:53;6.25;;;3.00;;
48975;SDS011;34791;52.752;8.346;2022-07-23T05:45:18;6.78;;;3.30;;
48975;SDS011;34791;52.752;8.346;2022-07-23T05:47:45;8.25;;;3.50;;
48975;SDS011;34791;52.752;8.346;2022-07-23T05:50:11;8.10;;;3.13;;
48975;SDS011;34791;52.752;8.346;2022-07-23T05:52:36;5.82;;;2.50;;
48975;SDS011;34791;52.752;8.346;2022-07-23T05:55:02;7.00;;;3.03;;
48975;SDS011;34791;52.752;8.346;2022-07-23T05:57:27;8.52;;;2.80;;
48975;SDS011;34791;52.752;8.346;2022-07-23T05:59:52;6.47;;;2.67;;
48975;SDS011;34791;52.752;8.346;2022-07-23T06:02:17;6.25;;;2.65;;
48975;SDS011;34791;52.752;8.346;2022-07-23T06:04:42;6.00;;;2.40;;
48975;SDS011;34791;52.752;8.346;2022-07-23T06:07:08;9.77;;;2.70;;
48975;SDS011;34791;52.752;8.346;2022-07-23T06:09:33;6.63;;;2.17;;
48975;SDS011;34791;52.752;8.346;2022-07-23T06:11:58;7.63;;;2.22;;
48975;SDS011;34791;52.752;8.346;2022-07-23T06:14:23;6.60;;;2.22;;
48975;SDS011;34791;52.752;8.346;2022-07-23T06:16:49;6.43;;;2.30;;
48975;SDS011;34791;52.752;8.346;2022-07-23T06:19:14;6.18;;;2.17;;
48975;SDS011;34791;52.752;8.346;2022-07-23T06:21:39;6.80;;;2.22;;
48975;SDS011;34791;52.752;8.346;2022-07-23T06:24:05;7.38;;;2.05;;
48975;SDS011;34791;52.752;8.346;2022-07-23T06:26:30;5.20;;;2.20;;
48975;SDS011;34791;52.752;8.346;2022-07-23T06:28:55;6.80;;;2.15;;
48975;SDS011;34791;52.752;8.346;2022-07-23T06:31:20;4.85;;;1.90;;
48975;SDS011;34791;52.752;8.346;2022-07-23T06:33:46;6.95;;;2.05;;
48975;SDS011;34791;52.752;8.346;2022-07-23T06:36:11;5.55;;;2.20;;
48975;SDS011;34791;52.752;8.346;2022-07-23T06:38:36;8.55;;;1.90;;
48975;SDS011;34791;52.752;8.346;2022-07-23T06:41:01;6.80;;;1.80;;
48975;SDS011;34791;52.752;8.346;2022-07-23T06:43:27;4.00;;;1.50;;
48975;SDS011;34791;52.752;8.346;2022-07-23T06:45:52;8.15;;;2.03;;
48975;SDS011;34791;52.752;8.346;2022-07-23T06:48:17;4.65;;;1.42;;
48975;SDS011;34791;52.752;8.346;2022-07-23T06:50:42;4.75;;;1.40;;
48975;SDS011;34791;52.752;8.346;2022-07-23T06:53:07;4.13;;;1.40;;
48975;SDS011;34791;52.752;8.346;2022-07-23T06:55:33;5.75;;;1.83;;
48975;SDS011;34791;52.752;8.346;2022-07-23T06:58:00;5.82;;;1.70;;
48975;SDS011;34791;52.752;8.346;2022-07-23T07:00:25;6.03;;;1.77;;
48975;SDS011;34791;52.752;8.346;2022-07-23T07:02:53;5.50;;;1.45;;
48975;SDS011;34791;52.752;8.346;2022-07-23T07:05:18;3.38;;;1.33;;
48975;SDS011;34791;52.752;8.346;2022-07-23T07:07:43;5.13;;;1.80;;
48975;SDS011;34791;52.752;8.346;2022-07-23T07:10:08;5.57;;;1.60;;
48975;SDS011;34791;52.752;8.346;2022-07-23T07:12:33;5.32;;;1.40;;
48975;SDS011;34791;52.752;8.346;2022-07-23T07:14:59;3.35;;;1.20;;
48975;SDS011;34791;52.752;8.346;2022-07-23T07:17:24;5.53;;;1.30;;
48975;SDS011;34791;52.752;8.346;2022-07-23T07:19:49;2.95;;;1.30;;
48975;SDS011;34791;52.752;8.346;2022-07-23T07:22:14;3.80;;;1.60;;
48975;SDS011;34791;52.752;8.346;2022-07-23T07:24:40;4.50;;;1.40;;
48975;SDS011;34791;52.752;8.346;2022-07-23T07:27:05;4.20;;;1.40;;
48975;SDS011;34791;52.752;8.346;2022-07-23T07:29:30;4.45;;;1.50;;
48975;SDS011;34791;52.752;8.346;2022-07-23T07:31:55;5.60;;;1.23;;
48975;SDS011;34791;52.752;8.346;2022-07-23T07:34:21;5.25;;;1.20;;
48975;SDS011;34791;52.752;8.346;2022-07-23T07:36:46;4.28;;;1.40;;
48975;SDS011;34791;52.752;8.346;2022-07-23T07:39:11;5.43;;;1.38;;
48975;SDS011;34791;52.752;8.346;2022-07-23T07:41:36;3.13;;;1.00;;
48975;SDS011;34791;52.752;8.346;2022-07-23T07:44:02;4.13;;;1.13;;
48975;SDS011;34791;52.752;8.346;2022-07-23T07:46:27;3.80;;;1.02;;
48975;SDS011;34791;52.752;8.346;2022-07-23T07:48:52;3.83;;;1.20;;
48975;SDS011;34791;52.752;8.346;2022-07-23T07:51:18;5.43;;;1.27;;
48975;SDS011;34791;52.752;8.346;2022-07-23T07:53:43;4.07;;;1.10;;
48975;SDS011;34791;52.752;8.346;2022-07-23T07:56:08;3.17;;;1.02;;
48975;SDS011;34791;52.752;8.346;2022-07-23T07:58:33;2.63;;;1.00;;
48975;SDS011;34791;52.752;8.346;2022-07-23T08:00:58;2.75;;;1.00;;
48975;SDS011;34791;52.752;8.346;2022-07-23T08:03:25;4.30;;;1.20;;
48975;SDS011;34791;52.752;8.346;2022-07-23T08:05:50;4.60;;;1.42;;
48975;SDS011;34791;52.752;8.346;2022-07-23T08:08:15;6.43;;;1.55;;
48975;SDS011;34791;52.752;8.346;2022-07-23T08:10:41;7.90;;;1.55;;
48975;SDS011;34791;52.752;8.346;2022-07-23T08:13:07;4.53;;;1.27;;
48975;SDS011;34791;52.752;8.346;2022-07-23T08:15:32;4.18;;;1.88;;
48975;SDS011;34791;52.752;8.346;2022-07-23T08:17:58;4.00;;;1.20;;
48975;SDS011;34791;52.752;8.346;2022-07-23T08:20:23;3.22;;;0.98;;
48975;SDS011;34791;52.752;8.346;2022-07-23T08:22:53;3.70;;;0.73;;
48975;SDS011;34791;52.752;8.346;2022-07-23T08:25:25;11.07;;;1.50;;
48975;SDS011;34791;52.752;8.346;2022-07-23T08:27:51;2.72;;;1.00;;
48975;SDS011;34791;52.752;8.346;2022-07-23T08:30:17;2.25;;;0.90;;
48975;SDS011;34791;52.752;8.346;2022-07-23T08:32:50;7.22;;;1.63;;
48975;SDS011;34791;52.752;8.346;2022-07-23T08:35:15;5.15;;;1.10;;
48975;SDS011;34791;52.752;8.346;2022-07-23T08:37:40;3.53;;;0.90;;
48975;SDS011;34791;52.752;8.346;2022-07-23T08:40:06;4.10;;;1.00;;
48975;SDS011;34791;52.752;8.346;2022-07-23T08:42:32;3.28;;;0.90;;
48975;SDS011;34791;52.752;8.346;2022-07-23T08:45:00;3.60;;;1.10;;
48975;SDS011;34791;52.752;8.346;2022-07-23T08:47:26;2.70;;;1.13;;
48975;SDS011;34791;52.752;8.346;2022-07-23T08:49:52;6.35;;;1.30;;
48975;SDS011;34791;52.752;8.346;2022-07-23T08:52:18;3.15;;;1.00;;
48975;SDS011;34791;52.752;8.346;2022-07-23T08:54:43;1.60;;;0.80;;
48975;SDS011;34791;52.752;8.346;2022-07-23T08:57:09;3.70;;;0.88;;
48975;SDS011;34791;52.752;8.346;2022-07-23T08:59:34;1.88;;;0.77;;
48975;SDS011;34791;52.752;8.346;2022-07-23T09:01:59;4.53;;;0.80;;
48975;SDS011;34791;52.752;8.346;2022-07-23T09:04:25;3.80;;;0.80;;
48975;SDS011;34791;52.752;8.346;2022-07-23T09:06:50;2.97;;;0.80;;
48975;SDS011;34791;52.752;8.346;2022-07-23T09:09:19;5.30;;;0.90;;
48975;SDS011;34791;52.752;8.346;2022-07-23T09:11:48;2.63;;;0.90;;
48975;SDS011;34791;52.752;8.346;2022-07-23T09:14:36;4.85;;;1.15;;
48975;SDS011;34791;52.752;8.346;2022-07-23T09:17:11;2.30;;;0.68;;
48975;SDS011;34791;52.752;8.346;2022-07-23T09:19:36;1.73;;;0.70;;
48975;SDS011;34791;52.752;8.346;2022-07-23T09:22:18;3.63;;;0.80;;
48975;SDS011;34791;52.752;8.346;2022-07-23T09:27:44;3.45;;;1.00;;
48975;SDS011;34791;52.752;8.346;2022-07-23T09:30:10;4.45;;;0.93;;
48975;SDS011;34791;52.752;8.346;2022-07-23T09:32:35;5.15;;;0.90;;
48975;SDS011;34791;52.752;8.346;2022-07-23T09:35:00;1.98;;;0.60;;
48975;SDS011;34791;52.752;8.346;2022-07-23T09:37:25;2.45;;;0.70;;
48975;SDS011;34791;52.752;8.346;2022-07-23T09:39:51;3.45;;;0.73;;
48975;SDS011;34791;52.752;8.346;2022-07-23T09:42:20;2.47;;;0.60;;
48975;SDS011;34791;52.752;8.346;2022-07-23T09:44:47;4.30;;;0.85;;
48975;SDS011;34791;52.752;8.346;2022-07-23T09:47:12;2.83;;;0.65;;
48975;SDS011;34791;52.752;8.346;2022-07-23T09:49:38;2.80;;;0.68;;
48975;SDS011;34791;52.752;8.346;2022-07-23T09:52:03;1.50;;;0.52;;
48975;SDS011;34791;52.752;8.346;2022-07-23T09:54:30;2.67;;;0.70;;
48975;SDS011;34791;52.752;8.346;2022-07-23T09:56:57;1.85;;;0.63;;
48975;SDS011;34791;52.752;8.346;2022-07-23T09:59:24;2.53;;;0.77;;
48975;SDS011;34791;52.752;8.346;2022-07-23T10:01:51;2.22;;;0.60;;
48975;SDS011;34791;52.752;8.346;2022-07-23T10:04:17;2.33;;;0.60;;
48975;SDS011;34791;52.752;8.346;2022-07-23T10:06:43;3.30;;;0.52;;
48975;SDS011;34791;52.752;8.346;2022-07-23T10:09:08;4.95;;;0.77;;
48975;SDS011;34791;52.752;8.346;2022-07-23T10:11:36;1.85;;;0.50;;
48975;SDS011;34791;52.752;8.346;2022-07-23T10:14:01;1.92;;;0.60;;
48975;SDS011;34791;52.752;8.346;2022-07-23T10:16:29;1.20;;;0.40;;
48975;SDS011;34791;52.752;8.346;2022-07-23T10:18:54;0.73;;;0.40;;
48975;SDS011;34791;52.752;8.346;2022-07-23T10:21:56;1.65;;;0.40;;
48975;SDS011;34791;52.752;8.346;2022-07-23T10:24:28;1.42;;;0.63;;
48975;SDS011;34791;52.752;8.346;2022-07-23T10:31:58;1.65;;;0.60;;
48975;SDS011;34791;52.752;8.346;2022-07-23T10:39:22;3.67;;;1.02;;
48975;SDS011;34791;52.752;8.346;2022-07-23T10:41:48;1.35;;;0.50;;
48975;SDS011;34791;52.752;8.346;2022-07-23T10:44:15;0.95;;;0.40;;
48975;SDS011;34791;52.752;8.346;2022-07-23T10:46:53;1.25;;;0.50;;
48975;SDS011;34791;52.752;8.346;2022-07-23T10:49:38;1.25;;;0.43;;
48975;SDS011;34791;52.752;8.346;2022-07-23T10:54:42;1.58;;;0.40;;
48975;SDS011;34791;52.752;8.346;2022-07-23T10:57:07;1.63;;;0.45;;
48975;SDS011;34791;52.752;8.346;2022-07-23T11:02:20;1.80;;;0.52;;
48975;SDS011;34791;52.752;8.346;2022-07-23T11:04:49;1.10;;;0.52;;
48975;SDS011;34791;52.752;8.346;2022-07-23T11:07:18;2.33;;;0.60;;
48975;SDS011;34791;52.752;8.346;2022-07-23T11:09:43;1.73;;;0.50;;
48975;SDS011;34791;52.752;8.346;2022-07-23T11:17:21;1.13;;;0.50;;
48975;SDS011;34791;52.752;8.346;2022-07-23T11:22:45;3.53;;;0.60;;
48975;SDS011;34791;52.752;8.346;2022-07-23T11:25:11;1.57;;;0.50;;
48975;SDS011;34791;52.752;8.346;2022-07-23T11:27:38;3.38;;;0.70;;
48975;SDS011;34791;52.752;8.346;2022-07-23T11:30:03;3.80;;;0.63;;
48975;SDS011;34791;52.752;8.346;2022-07-23T11:32:29;2.65;;;0.40;;
48975;SDS011;34791;52.752;8.346;2022-07-23T11:34:55;2.53;;;0.63;;
48975;SDS011;34791;52.752;8.346;2022-07-23T11:37:28;1.60;;;0.60;;
48975;SDS011;34791;52.752;8.346;2022-07-23T11:39:54;2.10;;;0.55;;
48975;SDS011;34791;52.752;8.346;2022-07-23T11:42:20;2.28;;;0.50;;
48975;SDS011;34791;52.752;8.346;2022-07-23T11:44:46;2.90;;;0.50;;
48975;SDS011;34791;52.752;8.346;2022-07-23T11:47:11;2.78;;;0.50;;
48975;SDS011;34791;52.752;8.346;2022-07-23T11:49:38;2.50;;;0.52;;
48975;SDS011;34791;52.752;8.346;2022-07-23T11:52:08;1.42;;;0.50;;
48975;SDS011;34791;52.752;8.346;2022-07-23T11:54:35;1.75;;;0.50;;
48975;SDS011;34791;52.752;8.346;2022-07-23T11:57:01;2.50;;;0.52;;
48975;SDS011;34791;52.752;8.346;2022-07-23T11:59:27;1.35;;;0.40;;
48975;SDS011;34791;52.752;8.346;2022-07-23T12:02:00;1.60;;;0.55;;
48975;SDS011;34791;52.752;8.346;2022-07-23T12:04:45;1.58;;;0.40;;
48975;SDS011;34791;52.752;8.346;2022-07-23T12:09:50;2.40;;;0.90;;
48975;SDS011;34791;52.752;8.346;2022-07-23T12:12:16;2.33;;;0.50;;
48975;SDS011;34791;52.752;8.346;2022-07-23T12:14:48;2.50;;;0.50;;
48975;SDS011;34791;52.752;8.346;2022-07-23T12:17:13;1.02;;;0.40;;
48975;SDS011;34791;52.752;8.346;2022-07-23T12:19:38;2.45;;;0.50;;
48975;SDS011;34791;52.752;8.346;2022-07-23T12:22:04;3.92;;;0.60;;
48975;SDS011;34791;52.752;8.346;2022-07-23T12:24:29;2.00;;;0.80;;
48975;SDS011;34791;52.752;8.346;2022-07-23T12:27:07;2.53;;;1.02;;
48975;SDS011;34791;52.752;8.346;2022-07-23T12:29:36;2.22;;;0.43;;
48975;SDS011;34791;52.752;8.346;2022-07-23T12:32:01;4.25;;;0.60;;
48975;SDS011;34791;52.752;8.346;2022-07-23T12:34:27;1.67;;;0.38;;
48975;SDS011;34791;52.752;8.346;2022-07-23T12:36:52;1.45;;;0.50;;
48975;SDS011;34791;52.752;8.346;2022-07-23T12:39:30;1.10;;;0.47;;
48975;SDS011;34791;52.752;8.346;2022-07-23T12:41:56;1.50;;;0.40;;
48975;SDS011;34791;52.752;8.346;2022-07-23T12:44:21;1.73;;;0.52;;
48975;SDS011;34791;52.752;8.346;2022-07-23T12:46:49;1.67;;;0.50;;
48975;SDS011;34791;52.752;8.346;2022-07-23T12:49:24;1.98;;;0.50;;
48975;SDS011;34791;52.752;8.346;2022-07-23T12:51:50;1.73;;;0.60;;
48975;SDS011;34791;52.752;8.346;2022-07-23T12:54:15;2.72;;;0.50;;
48975;SDS011;34791;52.752;8.346;2022-07-23T12:56:40;2.75;;;0.40;;
48975;SDS011;34791;52.752;8.346;2022-07-23T12:59:10;0.80;;;0.40;;
48975;SDS011;34791;52.752;8.346;2022-07-23T13:01:37;2.78;;;0.40;;
48975;SDS011;34791;52.752;8.346;2022-07-23T13:04:04;1.83;;;0.45;;
48975;SDS011;34791;52.752;8.346;2022-07-23T13:06:30;2.60;;;0.60;;
48975;SDS011;34791;52.752;8.346;2022-07-23T13:08:56;1.85;;;0.75;;
48975;SDS011;34791;52.752;8.346;2022-07-23T13:11:22;1.60;;;0.55;;
48975;SDS011;34791;52.752;8.346;2022-07-23T13:13:47;1.88;;;0.60;;
48975;SDS011;34791;52.752;8.346;2022-07-23T13:16:12;0.47;;;0.32;;
48975;SDS011;34791;52.752;8.346;2022-07-23T13:18:38;2.22;;;0.60;;
48975;SDS011;34791;52.752;8.346;2022-07-23T13:21:03;1.70;;;0.52;;
48975;SDS011;34791;52.752;8.346;2022-07-23T13:23:28;2.50;;;0.73;;
48975;SDS011;34791;52.752;8.346;2022-07-23T13:25:54;2.13;;;0.60;;
48975;SDS011;34791;52.752;8.346;2022-07-23T13:28:19;1.25;;;0.50;;
48975;SDS011;34791;52.752;8.346;2022-07-23T13:30:45;1.73;;;0.50;;
48975;SDS011;34791;52.752;8.346;2022-07-23T13:33:11;0.98;;;0.40;;
48975;SDS011;34791;52.752;8.346;2022-07-23T13:35:36;2.15;;;0.68;;
48975;SDS011;34791;52.752;8.346;2022-07-23T13:38:03;1.40;;;0.50;;
48975;SDS011;34791;52.752;8.346;2022-07-23T13:40:28;2.20;;;0.60;;
48975;SDS011;34791;52.752;8.346;2022-07-23T13:42:53;2.33;;;0.50;;
48975;SDS011;34791;52.752;8.346;2022-07-23T13:45:19;1.23;;;0.50;;
48975;SDS011;34791;52.752;8.346;2022-07-23T13:47:44;2.15;;;0.50;;
48975;SDS011;34791;52.752;8.346;2022-07-23T13:50:09;2.65;;;0.55;;
48975;SDS011;34791;52.752;8.346;2022-07-23T13:52:35;2.38;;;0.60;;
48975;SDS011;34791;52.752;8.346;2022-07-23T13:55:03;1.63;;;0.50;;
48975;SDS011;34791;52.752;8.346;2022-07-23T13:57:30;2.95;;;0.55;;
48975;SDS011;34791;52.752;8.346;2022-07-23T13:59:55;1.00;;;0.40;;
48975;SDS011;34791;52.752;8.346;2022-07-23T14:02:21;1.35;;;0.57;;
48975;SDS011;34791;52.752;8.346;2022-07-23T14:04:46;4.47;;;0.70;;
48975;SDS011;34791;52.752;8.346;2022-07-23T14:07:11;1.98;;;0.70;;
48975;SDS011;34791;52.752;8.346;2022-07-23T14:09:37;1.58;;;0.55;;
48975;SDS011;34791;52.752;8.346;2022-07-23T14:12:03;1.75;;;0.63;;
48975;SDS011;34791;52.752;8.346;2022-07-23T14:14:28;2.25;;;0.57;;
48975;SDS011;34791;52.752;8.346;2022-07-23T14:16:54;2.45;;;0.40;;
48975;SDS011;34791;52.752;8.346;2022-07-23T14:19:20;2.97;;;0.60;;
48975;SDS011;34791;52.752;8.346;2022-07-23T14:21:45;2.70;;;0.57;;
48975;SDS011;34791;52.752;8.346;2022-07-23T14:24:10;3.85;;;0.60;;
48975;SDS011;34791;52.752;8.346;2022-07-23T14:26:35;1.48;;;0.50;;
48975;SDS011;34791;52.752;8.346;2022-07-23T14:29:01;2.03;;;0.60;;
48975;SDS011;34791;52.752;8.346;2022-07-23T14:31:26;1.85;;;0.60;;
48975;SDS011;34791;52.752;8.346;2022-07-23T14:33:51;2.97;;;0.50;;
48975;SDS011;34791;52.752;8.346;2022-07-23T14:36:16;1.25;;;0.50;;
48975;SDS011;34791;52.752;8.346;2022-07-23T14:38:42;9.27;;;1.27;;
48975;SDS011;34791;52.752;8.346;2022-07-23T14:41:07;1.60;;;0.55;;
48975;SDS011;34791;52.752;8.346;2022-07-23T14:43:33;1.15;;;0.50;;
48975;SDS011;34791;52.752;8.346;2022-07-23T14:45:58;2.15;;;0.52;;
48975;SDS011;34791;52.752;8.346;2022-07-23T14:48:23;1.20;;;0.60;;
48975;SDS011;34791;52.752;8.346;2022-07-23T14:50:49;3.30;;;0.70;;
48975;SDS011;34791;52.752;8.346;2022-07-23T14:53:14;1.65;;;0.60;;
48975;SDS011;34791;52.752;8.346;2022-07-23T14:55:39;5.07;;;0.50;;
48975;SDS011;34791;52.752;8.346;2022-07-23T14:58:04;1.45;;;0.60;;
48975;SDS011;34791;52.752;8.346;2022-07-23T15:00:29;2.25;;;0.70;;